createdAt,value
2022-08-29T00:00:09.875Z,101089.98
2022-08-29T00:04:10.991Z,101093.19
2022-08-29T00:07:49.010Z,101081.52
2022-08-29T00:11:26.978Z,101063.81
2022-08-29T00:15:07.528Z,101052.33
2022-08-29T00:18:45.809Z,101053.52
2022-08-29T00:22:24.550Z,101056.42
2022-08-29T00:26:03.354Z,101054.16
2022-08-29T00:29:40.836Z,101059.62
2022-08-29T00:33:18.422Z,101063.80
2022-08-29T00:36:55.670Z,101064.52
2022-08-29T00:40:37.147Z,101054.02
2022-08-29T00:44:15.298Z,101051.16
2022-08-29T00:48:00.903Z,101043.28
2022-08-29T00:51:40.842Z,101021.98
2022-08-29T00:55:23.832Z,100978.01
2022-08-29T00:59:18.192Z,100962.56
2022-08-29T01:02:55.393Z,100965.92
2022-08-29T01:06:33.526Z,100958.85
2022-08-29T01:10:13.508Z,100955.79
2022-08-29T01:13:54.608Z,100948.48
2022-08-29T01:17:38.130Z,100949.92
2022-08-29T01:21:29.357Z,100950.16
2022-08-29T01:25:21.117Z,100945.75
2022-08-29T01:28:58.529Z,100954.66
2022-08-29T01:32:35.992Z,100958.67
2022-08-29T01:36:18.331Z,100956.02
2022-08-29T01:39:55.669Z,100955.21
2022-08-29T01:43:42.513Z,100948.55
2022-08-29T01:47:24.634Z,100931.92
2022-08-29T01:51:02.363Z,100923.73
2022-08-29T01:54:42.910Z,100920.92
2022-08-29T01:58:20.498Z,100911.92
2022-08-29T02:02:12.126Z,100912.56
2022-08-29T02:05:49.327Z,100909.58
2022-08-29T02:09:26.789Z,100906.37
2022-08-29T02:13:04.654Z,100908.05
2022-08-29T02:16:42.477Z,100907.24
2022-08-29T02:20:20.488Z,100903.23
2022-08-29T02:24:16.011Z,100907.95
2022-08-29T02:27:58.944Z,100906.98
2022-08-29T02:31:37.447Z,100917.67
2022-08-29T02:35:15.493Z,100920.00
2022-08-29T02:38:54.874Z,100919.60
2022-08-29T02:42:32.762Z,100922.02
2022-08-29T02:46:14.863Z,100919.91
2022-08-29T02:49:52.329Z,100928.83
2022-08-29T02:53:31.116Z,100933.33
2022-08-29T02:57:08.297Z,100944.25
2022-08-29T03:00:45.961Z,100950.66
2022-08-29T03:04:23.753Z,100956.93
2022-08-29T03:08:03.500Z,100956.94
2022-08-29T03:11:40.512Z,100955.26
2022-08-29T03:15:22.265Z,100955.81
2022-08-29T03:19:00.340Z,100948.35
2022-08-29T03:22:38.866Z,100957.35
2022-08-29T03:26:16.174Z,100962.25
2022-08-29T03:29:53.161Z,100965.30
2022-08-29T03:33:30.886Z,100966.58
2022-08-29T03:37:08.059Z,100970.92
2022-08-29T03:40:46.114Z,100974.30
2022-08-29T03:44:24.486Z,100973.58
2022-08-29T03:48:03.148Z,100977.91
2022-08-29T03:51:41.859Z,100978.64
2022-08-29T03:55:20.297Z,100975.75
2022-08-29T03:58:58.719Z,100979.69
2022-08-29T04:02:36.610Z,100990.36
2022-08-29T04:06:15.925Z,100990.61
2022-08-29T04:09:53.241Z,100997.91
2022-08-29T04:13:30.289Z,101012.60
2022-08-29T04:17:08.977Z,101016.52
2022-08-29T04:20:49.094Z,101019.10
2022-08-29T04:24:26.943Z,101025.59
2022-08-29T04:28:07.926Z,101026.23
2022-08-29T04:31:45.212Z,101034.11
2022-08-29T04:35:23.083Z,101032.99
2022-08-29T04:39:00.221Z,101039.52
2022-08-29T04:42:38.586Z,101045.31
2022-08-29T04:46:23.867Z,101041.21
2022-08-29T04:50:02.137Z,101043.08
2022-08-29T04:53:39.296Z,101041.14
2022-08-29T04:57:16.992Z,101043.45
2022-08-29T05:00:56.186Z,101034.95
2022-08-29T05:04:33.528Z,101040.39
2022-08-29T05:08:10.989Z,101041.11
2022-08-29T05:11:49.693Z,101044.70
2022-08-29T05:15:27.279Z,101046.63
2022-08-29T05:19:08.347Z,101053.11
2022-08-29T05:22:46.474Z,101068.52
2022-08-29T05:26:29.133Z,101074.20
2022-08-29T05:30:07.034Z,101077.79
2022-08-29T05:33:44.219Z,101086.98
2022-08-29T05:37:21.773Z,101091.46
2022-08-29T05:41:01.391Z,101094.89
2022-08-29T05:44:40.297Z,101097.51
2022-08-29T05:48:18.291Z,101098.15
2022-08-29T05:51:57.081Z,101090.11
2022-08-29T05:55:42.681Z,101098.23
2022-08-29T05:59:20.602Z,101105.44
2022-08-29T06:02:58.352Z,101122.70
2022-08-29T06:06:36.459Z,101132.67
2022-08-29T06:10:13.826Z,101142.81
2022-08-29T06:13:51.472Z,101149.89
2022-08-29T06:17:28.929Z,101148.85
2022-08-29T06:21:07.927Z,101141.86
2022-08-29T06:24:46.359Z,101139.63
2022-08-29T06:28:26.591Z,101138.44
2022-08-29T06:32:05.227Z,101139.11
2022-08-29T06:35:43.570Z,101131.18
2022-08-29T06:39:21.489Z,101126.16
2022-08-29T06:42:58.968Z,101130.06
2022-08-29T06:46:40.332Z,101144.32
2022-08-29T06:50:17.895Z,101141.31
2022-08-29T06:53:56.676Z,101145.14
2022-08-29T06:57:36.302Z,101148.64
2022-08-29T07:01:17.139Z,101146.92
2022-08-29T07:04:55.979Z,101150.73
2022-08-29T07:08:33.892Z,101156.83
2022-08-29T07:12:11.735Z,101155.50
2022-08-29T07:15:49.945Z,101157.15
2022-08-29T07:19:27.966Z,101160.23
2022-08-29T07:23:05.227Z,101157.67
2022-08-29T07:26:46.590Z,101169.48
2022-08-29T07:30:25.521Z,101174.74
2022-08-29T07:34:03.665Z,101175.30
2022-08-29T07:37:41.676Z,101172.83
2022-08-29T07:41:19.802Z,101177.36
2022-08-29T07:44:58.622Z,101175.13
2022-08-29T07:48:36.545Z,101169.24
2022-08-29T07:52:13.510Z,101162.30
2022-08-29T07:55:52.256Z,101159.21
2022-08-29T07:59:31.299Z,101163.86
2022-08-29T08:03:09.757Z,101159.02
2022-08-29T08:06:47.024Z,101158.83
2022-08-29T08:10:24.835Z,101158.88
2022-08-29T08:14:04.704Z,101164.88
2022-08-29T08:17:44.237Z,101168.98
2022-08-29T08:21:22.865Z,101181.55
2022-08-29T08:25:00.070Z,101179.73
2022-08-29T08:28:39.606Z,101168.57
2022-08-29T08:32:16.737Z,101172.63
2022-08-29T08:35:55.708Z,101170.86
2022-08-29T08:39:37.108Z,101167.84
2022-08-29T08:43:26.534Z,101167.95
2022-08-29T08:47:09.293Z,101177.68
2022-08-29T08:50:54.299Z,101188.41
2022-08-29T08:54:42.672Z,101196.23
2022-08-29T08:58:40.550Z,101191.33
2022-08-29T09:02:29.986Z,101179.66
2022-08-29T09:06:32.974Z,101192.11
2022-08-29T09:10:32.016Z,101201.93
2022-08-29T09:14:44.721Z,101196.17
2022-08-29T09:18:41.144Z,101202.46
2022-08-29T09:22:27.206Z,101207.12
2022-08-29T09:26:12.958Z,101214.61
2022-08-29T09:30:02.603Z,101206.04
2022-08-29T09:33:44.588Z,101195.92
2022-08-29T09:37:35.167Z,101191.67
2022-08-29T09:41:26.552Z,101203.27
2022-08-29T09:45:18.463Z,101206.04
2022-08-29T09:49:02.526Z,101206.45
2022-08-29T09:52:57.673Z,101210.10
2022-08-29T09:56:37.532Z,101210.98
2022-08-29T10:00:17.981Z,101209.30
2022-08-29T10:04:02.214Z,101193.20
2022-08-29T10:07:52.777Z,101176.31
2022-08-29T10:11:36.359Z,101151.98
2022-08-29T10:15:48.855Z,101132.49
2022-08-29T10:19:32.025Z,101164.73
2022-08-29T10:23:41.160Z,101181.48
2022-08-29T10:27:29.298Z,101189.11
2022-08-29T10:31:13.246Z,101172.50
2022-08-29T10:35:27.577Z,101169.52
2022-08-29T10:39:23.352Z,101178.86
2022-08-29T10:43:26.993Z,101175.19
2022-08-29T10:47:23.753Z,101163.83
2022-08-29T10:51:01.580Z,101146.98
2022-08-29T10:54:54.992Z,101143.30
2022-08-29T10:59:08.372Z,101162.80
2022-08-29T11:03:12.376Z,101178.91
2022-08-29T11:07:11.950Z,101187.34
2022-08-29T11:10:52.385Z,101190.77
2022-08-29T11:14:53.130Z,101177.80
2022-08-29T11:18:46.343Z,101175.78
2022-08-29T11:22:33.692Z,101167.98
2022-08-29T11:26:34.531Z,101153.73
2022-08-29T11:30:20.410Z,101154.05
2022-08-29T11:34:17.571Z,101160.69
2022-08-29T11:38:21.321Z,101197.95
2022-08-29T11:42:05.632Z,101270.02
2022-08-29T11:45:59.126Z,101291.80
2022-08-29T11:49:41.183Z,101304.63
2022-08-29T11:53:22.066Z,101293.42
2022-08-29T11:57:02.313Z,101287.54
2022-08-29T12:00:43.513Z,101264.26
2022-08-29T12:04:52.769Z,101246.95
2022-08-29T12:08:46.936Z,101254.64
2022-08-29T12:12:46.333Z,101238.37
2022-08-29T12:16:48.512Z,101222.41
2022-08-29T12:20:32.382Z,101208.02
2022-08-29T12:24:31.536Z,101211.45
2022-08-29T12:28:15.849Z,101224.61
2022-08-29T12:32:22.234Z,101233.18
2022-08-29T12:36:09.684Z,101225.31
2022-08-29T12:40:12.323Z,101198.73
2022-08-29T12:43:54.540Z,101188.21
2022-08-29T12:47:46.464Z,101189.94
2022-08-29T12:51:39.037Z,101183.28
2022-08-29T12:55:19.144Z,101168.92
2022-08-29T12:59:00.012Z,101178.88
2022-08-29T13:02:38.383Z,101178.61
2022-08-29T13:06:19.866Z,101160.23
2022-08-29T13:10:00.688Z,101136.12
2022-08-29T13:13:39.789Z,101118.01
2022-08-29T13:17:20.727Z,101104.89
2022-08-29T13:21:22.489Z,101101.19
2022-08-29T13:25:05.081Z,101115.62
2022-08-29T13:28:56.926Z,101146.48
2022-08-29T13:32:35.030Z,101138.13
2022-08-29T13:36:28.158Z,101153.67
2022-08-29T13:40:29.453Z,101187.96
2022-08-29T13:44:15.548Z,101169.09
2022-08-29T13:47:58.718Z,101125.24
2022-08-29T13:51:36.275Z,101145.35
2022-08-29T13:55:14.089Z,101134.99
2022-08-29T13:58:51.831Z,101161.84
2022-08-29T14:02:31.230Z,101184.25
2022-08-29T14:06:08.914Z,101164.67
2022-08-29T14:09:47.028Z,101185.27
2022-08-29T14:13:24.998Z,101199.23
2022-08-29T14:17:03.817Z,101194.11
2022-08-29T14:20:41.815Z,101195.48
2022-08-29T14:24:19.528Z,101182.42
2022-08-29T14:27:59.615Z,101126.10
2022-08-29T14:31:37.904Z,101110.46
2022-08-29T14:35:27.432Z,101146.52
2022-08-29T14:39:09.719Z,101169.65
2022-08-29T14:42:47.673Z,101207.06
2022-08-29T14:46:25.838Z,101225.41
2022-08-29T14:50:04.878Z,101218.84
2022-08-29T14:53:51.609Z,101205.73
2022-08-29T14:57:32.692Z,101168.41
2022-08-29T15:01:09.999Z,101181.02
2022-08-29T15:04:48.898Z,101173.61
2022-08-29T15:08:26.394Z,101176.42
2022-08-29T15:12:04.721Z,101174.11
2022-08-29T15:15:41.722Z,101177.30
2022-08-29T15:23:19.359Z,101135.74
2022-08-29T15:26:58.324Z,101111.39
2022-08-29T15:30:37.865Z,101115.73
2022-08-29T15:34:17.810Z,101112.42
2022-08-29T15:37:56.661Z,101122.20
2022-08-29T15:41:35.544Z,101114.42
2022-08-29T15:45:14.132Z,101102.08
2022-08-29T15:48:53.865Z,101087.98
2022-08-29T15:52:31.477Z,101068.13
2022-08-29T15:56:09.165Z,101045.70
2022-08-29T16:00:01.777Z,101039.61
2022-08-29T16:03:39.446Z,101035.63
2022-08-29T16:07:17.907Z,101011.42
2022-08-29T16:10:55.923Z,100999.64
2022-08-29T16:18:32.536Z,101001.17
2022-08-29T16:22:10.436Z,100994.74
2022-08-29T16:25:48.172Z,100978.88
2022-08-29T16:29:27.012Z,100966.61
2022-08-29T16:33:04.896Z,100953.83
2022-08-29T16:36:42.111Z,100952.89
2022-08-29T16:40:25.986Z,100944.85
2022-08-29T16:43:59.063Z,100947.75
2022-08-29T16:47:41.536Z,100966.40
2022-08-29T16:51:14.032Z,100956.03
2022-08-29T16:55:00.372Z,100943.27
2022-08-29T16:58:37.874Z,100935.63
2022-08-29T17:02:16.708Z,100941.17
2022-08-29T17:05:59.087Z,100945.98
2022-08-29T17:09:36.397Z,100945.39
2022-08-29T17:13:14.514Z,100931.50
2022-08-29T17:16:54.565Z,100928.02
2022-08-29T17:20:36.845Z,100931.36
2022-08-29T17:24:20.018Z,100919.50
2022-08-29T17:28:17.030Z,100919.73
2022-08-29T17:31:53.854Z,100919.79
2022-08-29T17:35:31.481Z,100922.86
2022-08-29T17:39:08.554Z,100935.52
2022-08-29T17:42:47.574Z,100947.02
2022-08-29T17:46:25.709Z,100953.55
2022-08-29T17:50:04.839Z,100957.20
2022-08-29T17:53:43.137Z,100947.56
2022-08-29T17:57:20.831Z,100947.27
2022-08-29T18:00:59.127Z,100927.75
2022-08-29T18:04:36.416Z,100922.38
2022-08-29T18:08:13.839Z,100928.27
2022-08-29T18:11:53.578Z,100940.30
2022-08-29T18:15:35.283Z,100951.83
2022-08-29T18:19:14.457Z,100954.08
2022-08-29T18:22:51.799Z,100946.50
2022-08-29T18:26:30.203Z,100946.90
2022-08-29T18:30:10.886Z,100942.61
2022-08-29T18:34:03.369Z,100944.55
2022-08-29T18:37:41.323Z,100939.60
2022-08-29T18:41:18.840Z,100942.17
2022-08-29T18:44:56.170Z,100953.78
2022-08-29T18:48:33.835Z,100969.40
2022-08-29T18:52:13.802Z,100993.41
2022-08-29T18:55:54.083Z,101007.45
2022-08-29T18:59:32.596Z,101006.55
2022-08-29T19:03:11.599Z,101003.33
2022-08-29T19:06:49.547Z,101007.98
2022-08-29T19:10:29.371Z,101002.40
2022-08-29T19:14:06.846Z,101001.14
2022-08-29T19:17:44.170Z,101011.91
2022-08-29T19:21:21.395Z,101019.76
2022-08-29T19:24:58.702Z,101028.95
2022-08-29T19:28:37.494Z,101042.52
2022-08-29T19:32:15.265Z,101049.88
2022-08-29T19:35:52.946Z,101056.27
2022-08-29T19:39:31.216Z,101061.37
2022-08-29T19:43:13.611Z,101059.59
2022-08-29T19:46:51.513Z,101072.27
2022-08-29T19:50:29.638Z,101077.67
2022-08-29T19:54:06.787Z,101090.23
2022-08-29T19:57:48.346Z,101084.25
2022-08-29T20:01:23.263Z,101097.80
2022-08-29T20:05:01.758Z,101107.15
2022-08-29T20:08:45.811Z,101111.17
2022-08-29T20:12:23.226Z,101111.00
2022-08-29T20:16:00.317Z,101116.57
2022-08-29T20:19:42.799Z,101119.30
2022-08-29T20:23:18.078Z,101110.90
2022-08-29T20:26:52.811Z,101109.45
2022-08-29T20:30:34.482Z,101118.97
2022-08-29T20:34:11.913Z,101116.41
2022-08-29T20:37:49.393Z,101104.14
2022-08-29T20:41:27.474Z,101103.19
2022-08-29T20:45:05.293Z,101106.02
2022-08-29T20:48:43.223Z,101108.66
2022-08-29T20:52:22.272Z,101107.22
2022-08-29T20:56:01.172Z,101116.59
2022-08-29T20:59:38.716Z,101116.16
2022-08-29T21:03:16.914Z,101120.77
2022-08-29T21:06:59.891Z,101116.58
2022-08-29T21:10:37.756Z,101114.01
2022-08-29T21:14:16.084Z,101113.54
2022-08-29T21:17:53.448Z,101127.63
2022-08-29T21:21:31.755Z,101119.98
2022-08-29T21:25:10.153Z,101123.29
2022-08-29T21:28:47.708Z,101121.12
2022-08-29T21:32:25.562Z,101121.60
2022-08-29T21:36:04.047Z,101120.81
2022-08-29T21:39:42.063Z,101114.20
2022-08-29T21:43:21.182Z,101122.67
2022-08-29T21:47:00.788Z,101120.67
2022-08-29T21:50:39.649Z,101113.51
2022-08-29T21:54:18.142Z,101121.64
2022-08-29T21:57:55.644Z,101123.25
2022-08-29T22:01:36.053Z,101123.98
2022-08-29T22:05:15.474Z,101131.25
2022-08-29T22:08:53.802Z,101130.30
2022-08-29T22:12:32.066Z,101138.35
2022-08-29T22:16:10.557Z,101140.54
2022-08-29T22:19:48.205Z,101147.13
2022-08-29T22:23:25.735Z,101157.13
2022-08-29T22:27:03.806Z,101155.36
2022-08-29T22:30:40.758Z,101154.58
2022-08-29T22:34:19.234Z,101163.91
2022-08-29T22:37:57.606Z,101179.06
2022-08-29T22:41:36.090Z,101182.05
2022-08-29T22:45:16.168Z,101178.20
2022-08-29T22:48:53.145Z,101189.08
2022-08-29T22:52:31.966Z,101193.51
2022-08-29T22:56:10.218Z,101183.29
2022-08-29T22:59:48.495Z,101172.00
2022-08-29T23:03:25.336Z,101177.88
2022-08-29T23:07:04.336Z,101179.48
2022-08-29T23:10:42.101Z,101190.04
2022-08-29T23:14:20.965Z,101200.42
2022-08-29T23:17:58.445Z,101192.21
2022-08-29T23:21:38.750Z,101177.96
2022-08-29T23:25:18.074Z,101184.40
2022-08-29T23:28:55.250Z,101194.14
2022-08-29T23:32:33.392Z,101205.49
2022-08-29T23:36:10.983Z,101202.27
2022-08-29T23:39:49.054Z,101195.84
2022-08-29T23:43:27.213Z,101205.33
2022-08-29T23:47:05.396Z,101198.56
2022-08-29T23:50:45.797Z,101191.31
2022-08-29T23:54:26.886Z,101197.35
2022-08-29T23:58:05.117Z,101193.16
